createdAt,value
2017-03-26T21:07:02.221Z,4.39
2017-03-26T21:08:06.019Z,4.94
2017-03-26T21:09:09.962Z,4.83
2017-03-26T21:10:13.861Z,5.44
2017-03-26T21:11:17.743Z,5.27
2017-03-26T21:12:21.592Z,5.49
2017-03-26T21:13:25.603Z,5.49
2017-03-26T21:14:29.341Z,5.20
2017-03-26T21:15:33.153Z,4.86
2017-03-26T21:16:36.971Z,4.71
2017-03-26T21:17:40.923Z,5.14
2017-03-26T21:19:12.475Z,4.43
2017-03-26T21:20:16.908Z,4.73
2017-03-26T21:21:20.842Z,4.63
2017-03-26T21:22:24.712Z,4.59
2017-03-26T21:23:28.209Z,4.91
2017-03-26T21:24:32.109Z,4.21
2017-03-26T21:25:36.178Z,5.09
2017-03-26T21:26:39.835Z,4.40
2017-03-26T21:27:43.727Z,5.03
2017-03-26T21:28:47.376Z,4.83
2017-03-26T21:29:51.367Z,4.79
2017-03-26T21:30:55.133Z,5.60
2017-03-26T21:31:58.949Z,5.19
2017-03-26T21:33:03.649Z,4.27
2017-03-26T21:34:07.371Z,4.87
2017-03-26T21:35:11.504Z,4.49
2017-03-26T21:36:15.182Z,5.14
2017-03-26T21:37:19.179Z,4.57
2017-03-26T21:38:22.969Z,4.39
2017-03-26T21:39:26.645Z,4.86
2017-03-26T21:40:31.008Z,4.74
2017-03-26T21:41:34.493Z,4.37
2017-03-26T21:42:37.540Z,4.76
2017-03-26T21:50:58.232Z,2.04
2017-03-26T21:52:01.407Z,1.95
2017-03-26T21:53:05.048Z,2.60
2017-03-26T21:54:08.973Z,3.08
2017-03-26T21:55:13.794Z,3.17
2017-03-26T21:56:17.941Z,2.92
2017-03-26T21:57:21.794Z,3.70
2017-03-26T21:58:25.607Z,3.38
2017-03-26T21:59:29.357Z,4.30
2017-03-26T22:00:33.215Z,3.75
2017-03-26T22:01:37.425Z,3.50
2017-03-26T22:02:41.292Z,3.97
2017-03-26T22:03:44.922Z,4.75
2017-03-26T22:04:48.567Z,4.22
2017-03-26T22:05:52.590Z,4.73
2017-03-26T22:06:56.414Z,5.12
2017-03-26T22:08:00.392Z,5.85
2017-03-26T22:09:04.389Z,5.22
2017-03-26T22:10:08.146Z,5.37
2017-03-26T22:11:12.241Z,5.35
2017-03-26T22:12:16.244Z,5.65
2017-03-26T22:13:20.338Z,4.53
2017-03-26T22:14:24.533Z,5.25
2017-03-26T22:15:29.075Z,5.68
2017-03-26T22:16:32.859Z,5.78
2017-03-26T22:17:37.437Z,6.73
2017-03-26T22:18:41.382Z,5.77
2017-03-26T22:19:45.427Z,5.77
2017-03-26T22:20:48.876Z,5.95
2017-03-26T22:21:52.781Z,5.63
2017-03-26T22:22:56.659Z,4.72
2017-03-26T22:24:00.632Z,5.32
2017-03-26T22:25:04.506Z,6.93
2017-03-26T22:26:08.374Z,8.33
2017-03-26T22:27:12.352Z,5.53
2017-03-26T22:28:16.458Z,7.22
2017-03-26T22:29:20.456Z,5.62
2017-03-26T22:30:24.495Z,6.08
2017-03-26T22:31:28.400Z,8.32
2017-03-26T22:32:31.894Z,5.27
2017-03-26T22:33:35.594Z,5.62
2017-03-26T22:34:39.576Z,9.45
2017-03-26T22:35:43.657Z,10.32
2017-03-26T22:36:46.929Z,12.98
2017-03-26T22:37:50.807Z,14.87
2017-03-26T22:38:55.430Z,14.12
2017-03-26T22:39:59.379Z,6.27
2017-03-26T22:41:03.381Z,7.95
2017-03-26T22:42:07.535Z,9.82
2017-03-26T22:43:11.238Z,10.20
2017-03-26T22:44:15.313Z,9.82
2017-03-26T22:45:18.985Z,8.97
2017-03-26T22:46:23.015Z,6.73
2017-03-26T22:47:26.826Z,7.18
2017-03-26T22:48:30.842Z,6.87
2017-03-26T22:49:34.823Z,6.47
2017-03-26T22:50:38.608Z,5.93
2017-03-26T22:51:42.604Z,5.87
2017-03-26T22:52:46.580Z,6.37
2017-03-26T22:53:51.015Z,5.72
2017-03-26T22:54:54.423Z,6.75
2017-03-26T22:55:58.192Z,6.53
2017-03-26T22:57:01.811Z,8.25
2017-03-26T22:58:05.515Z,6.00
2017-03-26T22:59:08.707Z,5.95
2017-03-26T23:00:12.554Z,5.32
2017-03-26T23:01:16.938Z,7.25
2017-03-26T23:02:21.200Z,11.53
2017-03-26T23:03:25.319Z,9.18
2017-03-26T23:04:29.054Z,5.97
2017-03-26T23:05:33.782Z,5.22
2017-03-26T23:06:37.457Z,7.35
2017-03-26T23:07:41.048Z,8.62
2017-03-26T23:08:45.727Z,11.83
2017-03-26T23:09:49.392Z,19.48
2017-03-26T23:10:53.245Z,11.27
2017-03-26T23:11:57.236Z,9.77
2017-03-26T23:13:01.159Z,8.15
2017-03-26T23:14:05.450Z,7.43
2017-03-26T23:15:09.296Z,8.55
2017-03-26T23:16:13.468Z,9.00
2017-03-26T23:17:17.293Z,10.20
2017-03-26T23:18:21.360Z,10.98
2017-03-26T23:19:25.239Z,6.13
2017-03-26T23:20:29.203Z,6.37
2017-03-26T23:21:33.193Z,9.32
2017-03-26T23:22:38.004Z,7.38
2017-03-26T23:23:42.756Z,7.70
2017-03-26T23:24:52.571Z,7.70
2017-03-26T23:25:56.533Z,8.03
2017-03-26T23:27:00.448Z,6.75
2017-03-26T23:28:05.397Z,7.87
2017-03-26T23:29:09.797Z,9.15
2017-03-26T23:30:14.947Z,7.87
2017-03-26T23:31:18.940Z,8.57
2017-03-26T23:32:23.147Z,9.43
2017-03-26T23:33:27.635Z,7.93
2017-03-26T23:34:31.288Z,10.30
2017-03-26T23:35:35.295Z,10.25
2017-03-26T23:36:39.249Z,8.02
2017-03-26T23:37:43.088Z,6.50
2017-03-26T23:38:47.082Z,8.37
2017-03-26T23:39:50.857Z,7.72
2017-03-26T23:40:54.816Z,6.77
2017-03-26T23:41:59.749Z,7.82
2017-03-26T23:43:04.500Z,6.95
2017-03-26T23:44:08.685Z,6.65
2017-03-26T23:45:12.581Z,3.87
2017-03-26T23:46:16.416Z,5.83
2017-03-26T23:47:21.087Z,5.82
2017-03-26T23:48:24.913Z,6.33
2017-03-26T23:49:28.808Z,7.35
2017-03-26T23:50:32.421Z,5.65
2017-03-26T23:51:36.439Z,6.03
2017-03-26T23:52:40.606Z,4.77
2017-03-26T23:53:45.034Z,5.22
2017-03-26T23:54:49.089Z,6.17
2017-03-26T23:55:53.233Z,6.23
2017-03-26T23:56:56.866Z,5.97
2017-03-26T23:58:00.767Z,8.97
2017-03-26T23:59:04.749Z,6.92
